createdAt,value
2022-08-17T00:01:27.476Z,18.23
2022-08-17T00:03:54.836Z,18.25
2022-08-17T00:06:25.030Z,18.25
2022-08-17T00:08:56.941Z,18.23
2022-08-17T00:11:32.573Z,18.22
2022-08-17T00:14:05.930Z,18.15
2022-08-17T00:16:55.756Z,18.11
2022-08-17T00:19:24.293Z,18.07
2022-08-17T00:22:32.436Z,18.06
2022-08-17T00:24:39.759Z,18.02
2022-08-17T00:27:06.188Z,18.00
2022-08-17T00:29:32.602Z,18.00
2022-08-17T00:31:59.051Z,17.97
2022-08-17T00:34:25.546Z,17.95
2022-08-17T00:36:54.433Z,17.93
2022-08-17T00:39:21.255Z,17.94
2022-08-17T00:41:47.821Z,17.91
2022-08-17T00:44:15.505Z,17.87
2022-08-17T00:46:43.594Z,17.84
2022-08-17T00:49:11.539Z,17.78
2022-08-17T00:51:40.902Z,17.77
2022-08-17T00:54:18.660Z,17.70
2022-08-17T00:56:51.213Z,17.67
2022-08-17T00:59:20.820Z,17.65
2022-08-17T01:01:49.313Z,17.62
2022-08-17T01:04:18.433Z,17.59
2022-08-17T01:06:49.398Z,17.56
2022-08-17T01:09:17.769Z,17.56
2022-08-17T01:11:46.140Z,17.57
2022-08-17T01:14:13.251Z,17.53
2022-08-17T01:16:39.873Z,17.49
2022-08-17T01:19:16.975Z,17.48
2022-08-17T01:21:50.224Z,17.43
2022-08-17T01:24:17.329Z,17.36
2022-08-17T01:26:45.551Z,17.38
2022-08-17T01:29:12.788Z,17.34
2022-08-17T01:31:45.446Z,17.30
2022-08-17T01:34:14.820Z,17.28
2022-08-17T01:36:44.605Z,17.29
2022-08-17T01:39:21.669Z,17.23
2022-08-17T01:41:51.186Z,17.21
2022-08-17T01:44:17.852Z,17.17
2022-08-17T01:46:44.330Z,17.12
2022-08-17T01:49:12.183Z,17.09
2022-08-17T01:51:39.670Z,17.07
2022-08-17T01:54:11.301Z,17.06
2022-08-17T01:56:41.269Z,17.00
2022-08-17T01:59:07.879Z,16.98
2022-08-17T02:01:35.422Z,17.00
2022-08-17T02:04:02.702Z,16.98
2022-08-17T02:06:44.797Z,16.99
2022-08-17T02:09:16.635Z,16.96
2022-08-17T02:11:44.968Z,16.93
2022-08-17T02:14:12.713Z,16.88
2022-08-17T02:16:41.133Z,16.83
2022-08-17T02:19:11.717Z,16.75
2022-08-17T02:21:40.142Z,16.74
2022-08-17T02:24:10.899Z,16.70
2022-08-17T02:26:37.563Z,16.69
2022-08-17T02:29:04.403Z,16.72
2022-08-17T02:31:31.361Z,16.71
2022-08-17T02:34:03.973Z,16.69
2022-08-17T02:36:34.114Z,16.71
2022-08-17T02:39:06.069Z,16.68
2022-08-17T02:41:33.070Z,16.68
2022-08-17T02:43:59.774Z,16.66
2022-08-17T02:46:26.536Z,16.66
2022-08-17T02:48:53.019Z,16.64
2022-08-17T02:51:19.623Z,16.66
2022-08-17T02:53:46.748Z,16.61
2022-08-17T02:56:13.357Z,16.55
2022-08-17T02:58:39.826Z,16.53
2022-08-17T03:01:08.722Z,16.53
2022-08-17T03:03:37.677Z,16.48
2022-08-17T03:06:04.574Z,16.46
2022-08-17T03:08:31.082Z,16.46
2022-08-17T03:10:57.559Z,16.41
2022-08-17T03:13:24.427Z,16.39
2022-08-17T03:15:51.448Z,16.44
2022-08-17T03:18:25.482Z,16.44
2022-08-17T03:20:53.311Z,16.37
2022-08-17T03:23:23.834Z,16.35
2022-08-17T03:25:52.906Z,16.31
2022-08-17T03:28:21.076Z,16.29
2022-08-17T03:30:47.596Z,16.26
2022-08-17T03:33:14.614Z,16.24
2022-08-17T03:35:42.065Z,16.25
2022-08-17T03:38:11.121Z,16.24
2022-08-17T03:40:56.648Z,16.22
2022-08-17T03:43:25.234Z,16.20
2022-08-17T03:46:29.009Z,16.16
2022-08-17T03:49:15.533Z,16.15
2022-08-17T03:52:00.432Z,16.13
2022-08-17T03:54:45.257Z,16.13
2022-08-17T03:57:12.479Z,16.18
2022-08-17T03:59:40.877Z,16.18
2022-08-17T04:02:11.441Z,16.19
2022-08-17T04:04:38.792Z,16.19
2022-08-17T04:07:06.163Z,16.17
2022-08-17T04:09:32.666Z,16.16
2022-08-17T04:12:01.334Z,16.17
2022-08-17T04:14:36.713Z,16.15
2022-08-17T04:17:21.281Z,16.16
2022-08-17T04:19:47.778Z,16.15
2022-08-17T04:22:32.233Z,16.13
2022-08-17T04:25:07.524Z,16.16
2022-08-17T04:27:33.992Z,16.24
2022-08-17T04:30:01.432Z,16.23
2022-08-17T04:32:58.557Z,16.20
2022-08-17T04:35:18.984Z,16.23
2022-08-17T04:37:45.539Z,16.30
2022-08-17T04:40:31.002Z,16.36
2022-08-17T04:43:13.405Z,16.56
2022-08-17T04:45:51.325Z,16.71
2022-08-17T04:48:22.824Z,16.86
2022-08-17T04:50:55.008Z,17.03
2022-08-17T04:53:21.752Z,17.30
2022-08-17T04:55:51.241Z,17.59
2022-08-17T04:58:18.052Z,17.98
2022-08-17T05:00:44.465Z,18.26
2022-08-17T05:03:11.438Z,18.52
2022-08-17T05:05:43.084Z,18.65
2022-08-17T05:08:09.667Z,18.87
2022-08-17T05:10:38.194Z,19.00
2022-08-17T05:13:17.862Z,19.25
2022-08-17T05:15:47.937Z,19.64
2022-08-17T05:18:15.647Z,20.01
2022-08-17T05:20:43.270Z,20.37
2022-08-17T05:23:13.333Z,20.75
2022-08-17T05:25:47.415Z,20.92
2022-08-17T05:28:16.324Z,21.32
2022-08-17T05:30:44.346Z,21.66
2022-08-17T05:33:14.222Z,21.78
2022-08-17T05:35:44.450Z,21.96
2022-08-17T05:38:10.948Z,22.42
2022-08-17T05:40:38.319Z,22.82
2022-08-17T05:43:16.308Z,23.16
2022-08-17T05:45:55.340Z,23.28
2022-08-17T05:48:22.473Z,23.56
2022-08-17T05:51:15.054Z,24.02
2022-08-17T05:54:05.332Z,24.25
2022-08-17T05:56:47.694Z,24.62
2022-08-17T05:59:34.451Z,24.94
2022-08-17T06:02:05.288Z,25.04
2022-08-17T06:04:56.127Z,25.44
2022-08-17T06:07:25.280Z,25.60
2022-08-17T06:10:17.242Z,25.96
2022-08-17T06:13:18.753Z,26.59
2022-08-17T06:15:57.337Z,26.86
2022-08-17T06:18:28.872Z,26.91
2022-08-17T06:21:02.655Z,27.18
2022-08-17T06:23:54.331Z,27.13
2022-08-17T06:26:37.374Z,27.58
2022-08-17T06:29:37.179Z,27.24
2022-08-17T06:32:08.420Z,26.62
2022-08-17T06:34:37.355Z,26.63
2022-08-17T06:37:13.110Z,26.44
2022-08-17T06:40:10.907Z,26.99
2022-08-17T06:43:02.630Z,27.48
2022-08-17T06:45:41.798Z,27.61
2022-08-17T06:48:32.635Z,27.70
2022-08-17T06:51:25.926Z,28.01
2022-08-17T06:54:19.517Z,28.49
2022-08-17T06:56:59.489Z,28.56
2022-08-17T06:59:36.245Z,28.77
2022-08-17T07:02:51.230Z,29.27
2022-08-17T07:05:32.085Z,29.72
2022-08-17T07:08:35.097Z,29.66
2022-08-17T07:11:14.405Z,30.67
2022-08-17T07:14:07.044Z,30.88
2022-08-17T07:16:41.067Z,30.79
2022-08-17T07:19:10.988Z,30.48
2022-08-17T07:21:52.561Z,30.60
2022-08-17T07:24:37.292Z,30.98
2022-08-17T07:27:07.032Z,30.93
2022-08-17T07:29:42.895Z,31.16
2022-08-17T07:32:11.233Z,31.83
2022-08-17T07:35:00.323Z,32.24
2022-08-17T07:37:26.965Z,32.61
2022-08-17T07:39:59.743Z,32.76
2022-08-17T07:42:45.086Z,33.23
2022-08-17T07:45:34.943Z,33.11
2022-08-17T07:48:20.112Z,33.08
2022-08-17T07:50:49.403Z,33.20
2022-08-17T07:53:23.204Z,33.46
2022-08-17T07:55:51.600Z,33.54
2022-08-17T07:58:22.267Z,33.17
2022-08-17T08:01:08.992Z,33.35
2022-08-17T08:03:42.561Z,33.79
2022-08-17T08:06:24.940Z,33.86
2022-08-17T08:08:55.238Z,33.43
2022-08-17T08:11:34.387Z,34.00
2022-08-17T08:14:31.100Z,34.76
2022-08-17T08:17:09.320Z,35.02
2022-08-17T08:19:36.580Z,35.39
2022-08-17T08:22:12.016Z,35.30
2022-08-17T08:25:03.139Z,35.73
2022-08-17T08:28:01.516Z,35.80
2022-08-17T08:30:29.850Z,36.12
2022-08-17T08:33:34.796Z,36.17
2022-08-17T08:37:14.274Z,36.11
2022-08-17T08:39:29.112Z,36.33
2022-08-17T08:42:24.413Z,36.72
2022-08-17T08:45:08.301Z,36.98
2022-08-17T08:47:50.755Z,37.05
2022-08-17T08:50:37.199Z,36.62
2022-08-17T08:53:14.806Z,36.79
2022-08-17T08:55:59.170Z,36.61
2022-08-17T08:58:43.818Z,36.87
2022-08-17T09:01:38.208Z,36.83
2022-08-17T09:04:40.744Z,36.95
2022-08-17T09:07:41.201Z,36.77
2022-08-17T09:10:10.620Z,36.56
2022-08-17T09:12:49.910Z,36.63
2022-08-17T09:15:45.075Z,36.32
2022-08-17T09:19:02.745Z,36.01
2022-08-17T09:21:33.642Z,36.20
2022-08-17T09:24:24.158Z,36.00
2022-08-17T09:27:05.023Z,35.36
2022-08-17T09:29:36.503Z,35.42
2022-08-17T09:32:21.870Z,35.60
2022-08-17T09:34:53.582Z,35.42
2022-08-17T09:37:29.435Z,35.31
2022-08-17T09:39:58.980Z,35.30
2022-08-17T09:42:59.469Z,34.43
2022-08-17T09:45:35.811Z,34.35
2022-08-17T09:48:10.736Z,34.25
2022-08-17T09:51:05.341Z,34.21
2022-08-17T09:53:32.159Z,33.99
2022-08-17T09:56:23.947Z,33.65
2022-08-17T09:59:16.878Z,33.67
2022-08-17T10:02:03.545Z,33.73
2022-08-17T10:04:47.235Z,33.61
2022-08-17T10:07:19.787Z,33.38
2022-08-17T10:09:46.158Z,33.44
2022-08-17T10:12:29.977Z,33.44
2022-08-17T10:15:37.313Z,33.55
2022-08-17T10:18:30.396Z,33.48
2022-08-17T10:21:34.266Z,33.12
2022-08-17T10:24:26.186Z,33.41
2022-08-17T10:26:56.801Z,33.52
2022-08-17T10:29:54.220Z,33.59
2022-08-17T10:32:38.380Z,33.66
2022-08-17T10:35:28.389Z,33.86
2022-08-17T10:38:16.796Z,33.91
2022-08-17T10:41:02.323Z,34.04
2022-08-17T10:43:44.696Z,33.78
2022-08-17T10:46:56.283Z,33.70
2022-08-17T10:49:26.542Z,33.80
2022-08-17T10:51:55.835Z,33.89
2022-08-17T10:54:25.356Z,33.69
2022-08-17T10:56:54.600Z,33.38
2022-08-17T10:59:36.396Z,33.21
2022-08-17T11:02:23.165Z,33.13
2022-08-17T11:05:15.680Z,33.22
2022-08-17T11:08:13.148Z,33.33
2022-08-17T11:10:49.938Z,33.20
2022-08-17T11:13:27.977Z,33.01
2022-08-17T11:16:17.491Z,33.11
2022-08-17T11:19:14.985Z,33.10
2022-08-17T11:21:51.986Z,33.26
2022-08-17T11:24:35.386Z,33.45
2022-08-17T11:27:25.370Z,33.56
2022-08-17T11:30:12.142Z,33.78
2022-08-17T11:32:52.908Z,33.89
2022-08-17T11:35:20.976Z,34.01
2022-08-17T11:38:02.966Z,34.23
2022-08-17T11:41:01.034Z,34.18
2022-08-17T11:43:58.696Z,34.01
2022-08-17T11:46:56.319Z,33.83
2022-08-17T11:50:15.931Z,33.88
2022-08-17T11:52:48.123Z,33.76
2022-08-17T11:55:38.194Z,34.01
2022-08-17T11:58:29.002Z,34.11
2022-08-17T12:01:00.854Z,34.35
2022-08-17T12:03:33.517Z,34.48
2022-08-17T12:06:30.751Z,34.53
2022-08-17T12:09:10.279Z,34.39
2022-08-17T12:12:11.042Z,34.43
2022-08-17T12:15:08.020Z,34.39
2022-08-17T12:17:39.259Z,34.30
2022-08-17T12:20:23.222Z,33.98
2022-08-17T12:23:13.880Z,33.85
2022-08-17T12:25:51.345Z,33.67
2022-08-17T12:28:43.822Z,33.49
2022-08-17T12:31:24.709Z,33.39
2022-08-17T12:33:52.184Z,33.38
2022-08-17T12:36:28.769Z,33.49
2022-08-17T12:39:14.248Z,33.53
2022-08-17T12:41:47.883Z,33.47
2022-08-17T12:44:16.680Z,33.29
2022-08-17T12:46:59.396Z,32.96
2022-08-17T12:49:29.815Z,32.62
2022-08-17T12:52:12.395Z,32.69
2022-08-17T12:54:41.904Z,32.86
2022-08-17T12:57:15.950Z,32.95
2022-08-17T12:59:46.598Z,32.95
2022-08-17T13:02:24.519Z,33.09
2022-08-17T13:04:51.092Z,33.10
2022-08-17T13:07:35.167Z,33.15
2022-08-17T13:10:01.930Z,33.17
2022-08-17T13:12:31.653Z,33.26
2022-08-17T13:14:58.804Z,33.25
2022-08-17T13:17:28.375Z,33.17
2022-08-17T13:19:55.012Z,33.20
2022-08-17T13:22:24.309Z,33.17
2022-08-17T13:24:54.589Z,32.97
2022-08-17T13:27:24.077Z,32.76
2022-08-17T13:29:55.718Z,32.79
2022-08-17T13:32:37.200Z,32.66
2022-08-17T13:35:39.186Z,32.61
2022-08-17T13:38:12.994Z,32.74
2022-08-17T13:40:50.808Z,32.63
2022-08-17T13:43:50.567Z,32.64
2022-08-17T13:46:29.367Z,32.72
2022-08-17T13:49:05.999Z,32.75
2022-08-17T13:51:36.193Z,32.67
2022-08-17T13:54:05.472Z,32.56
2022-08-17T13:56:46.664Z,32.52
2022-08-17T13:59:55.230Z,32.49
2022-08-17T14:02:26.091Z,32.49
2022-08-17T14:04:56.301Z,32.36
2022-08-17T14:07:27.877Z,32.32
2022-08-17T14:10:17.845Z,32.16
2022-08-17T14:12:45.449Z,32.18
2022-08-17T14:15:15.519Z,32.05
2022-08-17T14:17:42.075Z,32.13
2022-08-17T14:20:11.731Z,32.25
2022-08-17T14:22:42.891Z,32.31
2022-08-17T14:25:13.066Z,32.20
2022-08-17T14:27:51.883Z,32.18
2022-08-17T14:30:21.738Z,32.21
2022-08-17T14:32:49.041Z,32.27
2022-08-17T14:35:16.240Z,32.24
2022-08-17T14:37:44.737Z,32.27
2022-08-17T14:40:13.464Z,32.23
2022-08-17T14:42:42.155Z,32.23
2022-08-17T14:45:30.324Z,32.19
2022-08-17T14:47:56.871Z,32.18
2022-08-17T14:50:24.332Z,32.09
2022-08-17T14:52:59.205Z,31.96
2022-08-17T14:55:29.749Z,31.89
2022-08-17T14:57:56.669Z,31.87
2022-08-17T15:00:23.373Z,31.72
2022-08-17T15:02:58.438Z,31.69
2022-08-17T15:05:30.535Z,31.69
2022-08-17T15:07:57.972Z,31.65
2022-08-17T15:10:25.830Z,31.59
2022-08-17T15:12:53.233Z,31.54
2022-08-17T15:15:20.192Z,31.52
2022-08-17T15:17:46.739Z,31.48
2022-08-17T15:20:20.674Z,31.55
2022-08-17T15:22:55.166Z,31.45
2022-08-17T15:25:22.391Z,31.26
2022-08-17T15:27:49.202Z,31.10
2022-08-17T15:30:16.163Z,31.02
2022-08-17T15:32:51.387Z,30.93
2022-08-17T15:35:27.975Z,30.74
2022-08-17T15:37:57.463Z,30.58
2022-08-17T15:40:25.092Z,30.43
2022-08-17T15:42:51.597Z,30.32
2022-08-17T15:45:22.459Z,30.18
2022-08-17T15:47:53.263Z,30.01
2022-08-17T15:50:19.862Z,29.87
2022-08-17T15:52:47.497Z,29.83
2022-08-17T15:55:15.270Z,29.75
2022-08-17T15:57:42.142Z,29.63
2022-08-17T16:00:10.175Z,29.57
2022-08-17T16:03:44.760Z,29.50
2022-08-17T16:05:28.581Z,29.45
2022-08-17T16:07:58.584Z,29.36
2022-08-17T16:10:35.494Z,29.30
2022-08-17T16:13:03.609Z,29.26
2022-08-17T16:15:33.516Z,29.26
2022-08-17T16:17:59.960Z,29.25
2022-08-17T16:20:26.647Z,29.21
2022-08-17T16:22:54.163Z,29.18
2022-08-17T16:25:49.694Z,29.12
2022-08-17T16:28:12.237Z,29.10
2022-08-17T16:30:38.654Z,29.10
2022-08-17T16:33:05.723Z,29.12
2022-08-17T16:35:32.288Z,29.12
2022-08-17T16:37:58.987Z,29.12
2022-08-17T16:40:27.692Z,29.14
2022-08-17T16:42:55.469Z,29.17
2022-08-17T16:45:28.652Z,29.09
2022-08-17T16:48:01.520Z,29.04
2022-08-17T16:50:28.149Z,29.01
2022-08-17T16:53:17.070Z,29.10
2022-08-17T16:55:48.121Z,29.11
2022-08-17T16:58:15.733Z,29.08
2022-08-17T17:00:44.067Z,29.05
2022-08-17T17:03:19.090Z,28.93
2022-08-17T17:06:17.153Z,28.93
2022-08-17T17:08:59.055Z,28.88
2022-08-17T17:11:50.939Z,28.86
2022-08-17T17:14:28.334Z,28.73
2022-08-17T17:17:06.078Z,28.63
2022-08-17T17:20:00.527Z,28.58
2022-08-17T17:22:30.439Z,28.55
2022-08-17T17:25:07.031Z,28.47
2022-08-17T17:27:58.833Z,28.39
2022-08-17T17:30:44.571Z,28.34
2022-08-17T17:33:14.875Z,28.20
2022-08-17T17:35:54.933Z,28.17
2022-08-17T17:38:45.632Z,28.07
2022-08-17T17:41:25.841Z,28.01
2022-08-17T17:44:01.837Z,27.92
2022-08-17T17:46:37.946Z,27.88
2022-08-17T17:49:06.037Z,27.74
2022-08-17T17:52:07.873Z,27.61
2022-08-17T17:54:35.357Z,27.45
2022-08-17T17:57:11.531Z,27.32
2022-08-17T17:59:54.272Z,27.24
2022-08-17T18:02:52.061Z,27.11
2022-08-17T18:05:34.340Z,26.98
2022-08-17T18:08:11.059Z,26.89
2022-08-17T18:11:04.987Z,26.82
2022-08-17T18:13:53.538Z,26.69
2022-08-17T18:16:20.236Z,26.62
2022-08-17T18:18:48.121Z,26.58
2022-08-17T18:21:19.373Z,26.49
2022-08-17T18:23:54.706Z,26.40
2022-08-17T18:26:35.207Z,26.21
2022-08-17T18:29:25.670Z,26.05
2022-08-17T18:32:27.902Z,25.96
2022-08-17T18:35:21.386Z,25.84
2022-08-17T18:37:51.366Z,25.66
2022-08-17T18:40:20.846Z,25.60
2022-08-17T18:42:50.269Z,25.52
2022-08-17T18:45:33.902Z,25.42
2022-08-17T18:48:00.509Z,25.29
2022-08-17T18:50:41.104Z,25.18
2022-08-17T18:53:30.192Z,25.04
2022-08-17T18:56:25.225Z,24.91
2022-08-17T18:59:00.401Z,24.79
2022-08-17T19:01:47.004Z,24.76
2022-08-17T19:04:34.011Z,24.55
2022-08-17T19:07:08.997Z,24.50
2022-08-17T19:09:41.988Z,24.38
2022-08-17T19:12:13.484Z,24.28
2022-08-17T19:14:40.377Z,24.17
2022-08-17T19:17:16.414Z,24.02
2022-08-17T19:19:56.311Z,23.98
2022-08-17T19:23:05.812Z,23.89
2022-08-17T19:25:40.802Z,23.80
2022-08-17T19:28:22.413Z,23.71
2022-08-17T19:30:54.824Z,23.67
2022-08-17T19:33:21.515Z,23.56
2022-08-17T19:35:54.038Z,23.46
2022-08-17T19:38:35.557Z,23.42
2022-08-17T19:41:14.401Z,23.45
2022-08-17T19:43:54.170Z,23.42
2022-08-17T19:47:00.909Z,23.31
2022-08-17T19:49:48.920Z,23.20
2022-08-17T19:52:21.425Z,23.13
2022-08-17T19:55:01.415Z,23.09
2022-08-17T19:58:03.099Z,23.06
2022-08-17T20:00:31.282Z,22.95
2022-08-17T20:03:06.650Z,22.92
2022-08-17T20:06:01.406Z,22.85
2022-08-17T20:08:27.105Z,22.77
2022-08-17T20:10:58.679Z,22.74
2022-08-17T20:13:34.054Z,22.69
2022-08-17T20:16:02.170Z,22.59
2022-08-17T20:18:37.884Z,22.56
2022-08-17T20:21:20.226Z,22.54
2022-08-17T20:24:11.333Z,22.54
2022-08-17T20:26:51.238Z,22.58
2022-08-17T20:29:37.283Z,22.49
2022-08-17T20:32:17.271Z,22.36
2022-08-17T20:34:47.152Z,22.30
2022-08-17T20:37:13.511Z,22.30
2022-08-17T20:39:43.973Z,22.17
2022-08-17T20:42:22.300Z,22.19
2022-08-17T20:45:02.218Z,22.14
2022-08-17T20:47:47.125Z,22.10
2022-08-17T20:50:56.321Z,22.12
2022-08-17T20:53:47.458Z,22.05
2022-08-17T20:56:47.251Z,22.01
2022-08-17T20:59:26.883Z,21.98
2022-08-17T21:02:06.638Z,21.91
2022-08-17T21:04:52.259Z,21.81
2022-08-17T21:07:43.666Z,21.75
2022-08-17T21:10:20.443Z,21.73
2022-08-17T21:13:04.800Z,21.70
2022-08-17T21:15:51.741Z,21.67
2022-08-17T21:19:00.309Z,21.66
2022-08-17T21:21:46.507Z,21.53
2022-08-17T21:24:43.786Z,21.46
2022-08-17T21:27:40.339Z,21.45
2022-08-17T21:30:10.235Z,21.45
2022-08-17T21:32:39.737Z,21.39
2022-08-17T21:35:11.179Z,21.36
2022-08-17T21:37:42.220Z,21.35
2022-08-17T21:40:19.503Z,21.33
2022-08-17T21:42:50.458Z,21.30
2022-08-17T21:45:25.906Z,21.26
2022-08-17T21:48:11.001Z,21.27
2022-08-17T21:50:38.746Z,21.19
2022-08-17T21:53:05.721Z,21.11
2022-08-17T21:55:35.906Z,21.03
2022-08-17T21:58:19.176Z,21.02
2022-08-17T22:00:45.649Z,20.95
2022-08-17T22:03:24.122Z,20.94
2022-08-17T22:05:51.396Z,20.89
2022-08-17T22:08:21.974Z,20.88
2022-08-17T22:10:50.886Z,20.84
2022-08-17T22:13:17.681Z,20.85
2022-08-17T22:15:48.054Z,20.81
2022-08-17T22:18:25.434Z,20.84
2022-08-17T22:20:55.613Z,20.85
2022-08-17T22:23:47.782Z,20.89
2022-08-17T22:26:16.516Z,20.88
2022-08-17T22:28:49.556Z,20.87
2022-08-17T22:31:19.888Z,20.90
2022-08-17T22:34:02.174Z,20.93
2022-08-17T22:36:33.673Z,21.02
2022-08-17T22:39:23.023Z,21.03
2022-08-17T22:41:55.721Z,20.95
2022-08-17T22:44:31.846Z,20.97
2022-08-17T22:47:28.349Z,20.94
2022-08-17T22:50:00.163Z,20.92
2022-08-17T22:53:01.187Z,20.92
2022-08-17T22:55:49.097Z,20.89
2022-08-17T22:58:37.943Z,20.90
2022-08-17T23:01:36.795Z,20.91
2022-08-17T23:04:06.526Z,20.91
2022-08-17T23:06:35.239Z,20.92
2022-08-17T23:09:04.055Z,20.92
2022-08-17T23:11:47.855Z,20.89
2022-08-17T23:14:18.344Z,20.88
2022-08-17T23:16:44.941Z,20.86
2022-08-17T23:19:13.554Z,20.85
2022-08-17T23:21:40.161Z,20.85
2022-08-17T23:24:08.858Z,20.84
2022-08-17T23:26:38.037Z,20.83
2022-08-17T23:29:06.416Z,20.85
2022-08-17T23:31:34.767Z,20.82
2022-08-17T23:34:03.016Z,20.81
2022-08-17T23:36:31.623Z,20.80
2022-08-17T23:38:58.412Z,20.78
2022-08-17T23:41:28.540Z,20.79
2022-08-17T23:43:55.371Z,20.78
2022-08-17T23:46:25.066Z,20.79
2022-08-17T23:48:54.083Z,20.78
2022-08-17T23:51:25.297Z,20.76
2022-08-17T23:53:56.000Z,20.76
2022-08-17T23:56:26.020Z,20.76
2022-08-17T23:58:55.200Z,20.80
